Weather reports worldwide

Advertisment
Leon/Virgen del Camino, Spain (8055): temperature & dewpoint: 19.05.2019 08:00:00 - 25.05.2019 08:00:00 (CEST)Leon/Virgen del Camino, Spain (8055): wind speed: 19.05.2019 08:00:00 - 25.05.2019 08:00:00 (CEST)Leon/Virgen del Camino, Spain (8055): wind direction: 19.05.2019 08:00:00 - 25.05.2019 08:00:00 (CEST)Leon/Virgen del Camino, Spain (8055): visibility: 19.05.2019 08:00:00 - 25.05.2019 08:00:00 (CEST)
Date & Time tt [°C] td [°C] ff [km/h] ff [kn] dd vv [km]
25.05.2019 08:00:00 - - - - - -
25.05.2019 07:00:00 6,7 2,4 4 2 ENE -
25.05.2019 06:00:00 5,0 1,8 11 6 NW -
25.05.2019 05:00:00 6,6 2,5 8 4 NW -
25.05.2019 04:00:00 5,9 2,4 9 5 WNW -
25.05.2019 03:00:00 7,8 3,1 5 3 W -
25.05.2019 02:00:00 8,6 3,6 9 5 WNW -
25.05.2019 01:00:00 9,0 3,6 9 5 N -
25.05.2019 00:00:00 9,9 3,6 15 8 NNW -
24.05.2019 23:00:00 10,9 3,7 15 8 NNW -
24.05.2019 22:00:00 12,1 3,3 21 11 N -
24.05.2019 21:00:00 13,0 3,4 15 8 N -
24.05.2019 20:00:00 14,6 2,9 22 12 N 50
24.05.2019 19:00:00 15,8 2,5 24 13 N -
24.05.2019 18:00:00 15,6 1,9 22 12 NNW -
24.05.2019 17:00:00 17,2 2,3 22 12 N 50
24.05.2019 16:00:00 16,5 1,3 21 11 N -
24.05.2019 15:00:00 15,7 1,3 24 13 N -
24.05.2019 14:00:00 15,0 3,1 21 11 N 50
24.05.2019 13:00:00 15,1 3,5 16 9 N -
24.05.2019 12:00:00 14,3 3,1 16 9 N -
24.05.2019 11:00:00 13,0 2,5 18 10 N 50
24.05.2019 10:00:00 11,8 2,0 24 13 N -
24.05.2019 09:00:00 9,8 1,7 8 4 NE -
24.05.2019 08:00:00 6,6 1,7 4 2 NNW 40
24.05.2019 07:00:00 3,5 0,2 9 5 NW -
24.05.2019 06:00:00 3,6 0,5 8 4 NNW -
24.05.2019 05:00:00 4,3 1,2 9 5 NNW -
24.05.2019 04:00:00 5,4 1,7 8 4 NNW -
24.05.2019 03:00:00 7,4 3,3 8 4 NW -
24.05.2019 02:00:00 8,6 4,4 8 4 WNW -
24.05.2019 01:00:00 9,5 5,3 9 5 N -
24.05.2019 00:00:00 9,9 5,5 8 4 N -
23.05.2019 23:00:00 12,2 6,0 11 6 NNE -
23.05.2019 22:00:00 13,5 6,6 11 6 NNE -
23.05.2019 21:00:00 15,5 8,0 18 10 N -
23.05.2019 20:00:00 17,0 8,9 22 12 N 25
23.05.2019 19:00:00 21,3 6,0 16 9 WNW -
23.05.2019 18:00:00 22,7 5,1 21 11 W -
23.05.2019 17:00:00 23,3 3,3 15 8 WSW 30
23.05.2019 16:00:00 22,0 3,1 13 7 WSW -
23.05.2019 15:00:00 21,7 3,4 9 5 WNW -
23.05.2019 14:00:00 20,6 4,9 13 7 SW 30
23.05.2019 13:00:00 18,8 6,3 9 5 WNW -
23.05.2019 12:00:00 17,5 7,2 2 1 S -
23.05.2019 11:00:00 16,8 8,2 5 3 E 30
23.05.2019 10:00:00 15,3 9,2 4 2 NNE -
23.05.2019 09:00:00 14,0 9,6 4 2 E -
23.05.2019 08:00:00 11,6 8,1 4 2 N 30
23.05.2019 07:00:00 11,6 7,9 4 2 N -
23.05.2019 06:00:00 11,5 8,2 5 3 NW -
23.05.2019 05:00:00 11,4 8,1 8 4 N -
23.05.2019 04:00:00 12,6 8,3 9 5 NNW -
23.05.2019 03:00:00 13,5 9,2 5 3 NNE -
23.05.2019 02:00:00 13,7 8,9 13 7 NW -
23.05.2019 01:00:00 14,8 8,9 11 6 NW -
23.05.2019 00:00:00 15,3 8,5 11 6 NW -
22.05.2019 23:00:00 17,0 7,1 9 5 N -
22.05.2019 22:00:00 19,5 4,8 11 6 W -
22.05.2019 21:00:00 21,2 4,7 9 5 W -
22.05.2019 20:00:00 24,2 4,0 11 6 S 50
22.05.2019 19:00:00 23,7 2,5 11 6 WSW -
22.05.2019 18:00:00 23,9 2,3 13 7 SW -
22.05.2019 17:00:00 23,0 2,4 13 7 SSW 40
22.05.2019 16:00:00 22,7 2,3 11 6 SSW -
22.05.2019 15:00:00 22,1 3,2 13 7 SSW -
22.05.2019 14:00:00 20,9 3,3 11 6 SW 40
22.05.2019 13:00:00 19,6 4,3 11 6 SSW -
22.05.2019 12:00:00 18,1 5,5 8 4 SSW -
22.05.2019 11:00:00 16,6 6,4 4 2 SW 40
22.05.2019 10:00:00 14,3 6,6 5 3 E -
22.05.2019 09:00:00 11,5 6,6 5 3 ENE -
22.05.2019 08:00:00 8,8 5,5 4 2 N 30
22.05.2019 07:00:00 7,1 4,5 4 2 N -
22.05.2019 06:00:00 8,1 5,2 2 1 E -
22.05.2019 05:00:00 7,5 5,3 11 6 WNW -
22.05.2019 04:00:00 8,9 6,0 8 4 WSW -
22.05.2019 03:00:00 9,1 5,3 5 3 NNW -
22.05.2019 02:00:00 10,3 6,1 4 2 ESE -
22.05.2019 01:00:00 11,9 6,6 5 3 NNE -
22.05.2019 00:00:00 14,1 6,0 9 5 NNE -
21.05.2019 23:00:00 15,6 5,8 15 8 E -
21.05.2019 22:00:00 17,3 6,0 9 5 N -
21.05.2019 21:00:00 20,6 0,9 8 4 SSE -
21.05.2019 20:00:00 21,1 0,9 4 2 S 75
21.05.2019 19:00:00 20,4 0,8 4 2 WSW -
21.05.2019 18:00:00 21,3 1,6 5 3 WSW -
21.05.2019 17:00:00 20,6 1,8 11 6 WSW 75
21.05.2019 16:00:00 20,2 2,4 11 6 E -
21.05.2019 15:00:00 18,8 1,8 5 3 SE -
21.05.2019 14:00:00 17,6 2,3 8 4 SSW 75
21.05.2019 13:00:00 17,4 2,7 8 4 E -
21.05.2019 12:00:00 15,9 3,7 8 4 ESE -
21.05.2019 11:00:00 14,4 4,2 5 3 E 75
21.05.2019 10:00:00 13,6 4,8 5 3 E -
21.05.2019 09:00:00 10,6 4,9 8 4 N -
21.05.2019 08:00:00 6,1 4,1 9 5 N 75
21.05.2019 07:00:00 5,7 3,7 8 4 N -
21.05.2019 06:00:00 6,0 2,8 5 3 N -
21.05.2019 05:00:00 7,9 4,1 4 2 NNE -
21.05.2019 04:00:00 8,7 4,6 0 0 N -
21.05.2019 03:00:00 8,2 4,6 8 4 NNW -
21.05.2019 02:00:00 8,5 3,7 8 4 NNW -
21.05.2019 01:00:00 9,3 4,3 9 5 N -
21.05.2019 00:00:00 9,6 4,2 9 5 N -
20.05.2019 23:00:00 11,6 3,4 13 7 NNW -
20.05.2019 22:00:00 13,4 2,8 8 4 WNW -
20.05.2019 21:00:00 16,0 -1,6 4 2 SW -
20.05.2019 20:00:00 17,3 -2,4 4 2 SSE 40
20.05.2019 19:00:00 17,6 -2,1 8 4 SSW -
20.05.2019 18:00:00 18,3 -0,3 5 3 SW -
20.05.2019 17:00:00 17,0 0,7 8 4 SSE 40
20.05.2019 16:00:00 15,5 1,0 11 6 SW -
20.05.2019 15:00:00 16,0 1,6 8 4 S -
20.05.2019 14:00:00 14,6 2,0 9 5 SSE 40
20.05.2019 13:00:00 12,5 2,6 9 5 S -
20.05.2019 12:00:00 11,8 3,1 8 4 SSW -
20.05.2019 11:00:00 11,3 3,4 5 3 SW 40
20.05.2019 10:00:00 9,3 3,5 9 5 WSW -
20.05.2019 09:00:00 7,9 3,2 4 2 SSW -
20.05.2019 08:00:00 5,8 3,0 4 2 WSW 30
20.05.2019 07:00:00 3,2 0,3 4 2 NW -
20.05.2019 06:00:00 4,8 1,1 0 0 N -
20.05.2019 05:00:00 6,4 2,1 2 1 WNW -
20.05.2019 04:00:00 6,2 2,5 4 2 WNW -
20.05.2019 03:00:00 6,5 2,8 4 2 NNW -
20.05.2019 02:00:00 7,5 2,6 5 3 NE -
20.05.2019 01:00:00 7,2 2,3 9 5 N -
20.05.2019 00:00:00 8,4 2,8 9 5 NNE -
19.05.2019 23:00:00 8,9 2,7 11 6 NNE -
19.05.2019 22:00:00 9,5 2,3 9 5 NNE -
19.05.2019 21:00:00 12,2 2,3 16 9 N -
19.05.2019 20:00:00 14,0 1,3 15 8 N 30
19.05.2019 19:00:00 14,7 -2,1 5 3 ENE -
19.05.2019 18:00:00 15,3 -2,4 0 0 N -
19.05.2019 17:00:00 15,5 -2,4 5 3 S 40
19.05.2019 16:00:00 16,2 -2,1 8 4 NNE -
19.05.2019 15:00:00 14,8 -1,8 13 7 WSW -
19.05.2019 14:00:00 14,1 -1,5 9 5 ENE 40
19.05.2019 13:00:00 13,1 -1,8 9 5 SSE -
19.05.2019 12:00:00 11,4 -3,0 8 4 WSW -
19.05.2019 11:00:00 10,2 -0,9 5 3 N 40
19.05.2019 10:00:00 8,6 0,7 4 2 WNW -
19.05.2019 09:00:00 6,9 0,7 9 5 NW -
19.05.2019 08:00:00 3,3 0,2 9 5 NW 30

tt = temperature
td = dewpoint
ff = wind speed
dd = wind direction
vv = visibility

Next stations